sensor_id;sensor_type;location;lat;lon;timestamp;P1;durP1;ratioP1;P2;durP2;ratioP2
78228;SDS011;74448;49.082;9.152;2024-02-21T00:00:02;5.40;;;2.28;;
78228;SDS011;74448;49.082;9.152;2024-02-21T00:02:29;5.85;;;1.90;;
78228;SDS011;74448;49.082;9.152;2024-02-21T00:04:56;5.72;;;2.08;;
78228;SDS011;74448;49.082;9.152;2024-02-21T00:07:23;5.78;;;2.20;;
78228;SDS011;74448;49.082;9.152;2024-02-21T00:09:49;6.63;;;2.55;;
78228;SDS011;74448;49.082;9.152;2024-02-21T00:14:42;5.18;;;3.28;;
78228;SDS011;74448;49.082;9.152;2024-02-21T00:17:09;5.53;;;2.00;;
78228;SDS011;74448;49.082;9.152;2024-02-21T00:19:36;6.28;;;2.47;;
78228;SDS011;74448;49.082;9.152;2024-02-21T00:24:30;3.33;;;1.90;;
78228;SDS011;74448;49.082;9.152;2024-02-21T00:26:56;5.15;;;2.25;;
78228;SDS011;74448;49.082;9.152;2024-02-21T00:29:23;5.32;;;2.33;;
78228;SDS011;74448;49.082;9.152;2024-02-21T00:31:49;4.50;;;2.58;;
78228;SDS011;74448;49.082;9.152;2024-02-21T00:34:17;6.80;;;2.78;;
78228;SDS011;74448;49.082;9.152;2024-02-21T00:36:44;5.63;;;2.33;;
78228;SDS011;74448;49.082;9.152;2024-02-21T00:41:37;7.45;;;2.78;;
78228;SDS011;74448;49.082;9.152;2024-02-21T00:46:32;4.78;;;2.17;;
78228;SDS011;74448;49.082;9.152;2024-02-21T00:48:58;4.82;;;2.47;;
78228;SDS011;74448;49.082;9.152;2024-02-21T00:51:25;4.63;;;2.40;;
78228;SDS011;74448;49.082;9.152;2024-02-21T00:53:52;5.70;;;2.30;;
78228;SDS011;74448;49.082;9.152;2024-02-21T00:56:18;4.40;;;2.17;;
78228;SDS011;74448;49.082;9.152;2024-02-21T00:58:45;4.32;;;2.22;;
78228;SDS011;74448;49.082;9.152;2024-02-21T01:01:11;5.78;;;2.40;;
78228;SDS011;74448;49.082;9.152;2024-02-21T01:06:05;4.28;;;2.00;;
78228;SDS011;74448;49.082;9.152;2024-02-21T01:08:33;5.57;;;2.28;;
78228;SDS011;74448;49.082;9.152;2024-02-21T01:10:59;4.63;;;2.50;;
78228;SDS011;74448;49.082;9.152;2024-02-21T01:13:26;4.25;;;2.35;;
78228;SDS011;74448;49.082;9.152;2024-02-21T01:18:20;7.28;;;2.20;;
78228;SDS011;74448;49.082;9.152;2024-02-21T01:23:13;5.68;;;2.38;;
78228;SDS011;74448;49.082;9.152;2024-02-21T01:25:40;5.07;;;2.10;;
78228;SDS011;74448;49.082;9.152;2024-02-21T01:28:06;5.68;;;2.38;;
78228;SDS011;74448;49.082;9.152;2024-02-21T01:30:33;6.13;;;2.80;;
78228;SDS011;74448;49.082;9.152;2024-02-21T01:33:01;6.93;;;2.75;;
78228;SDS011;74448;49.082;9.152;2024-02-21T01:37:54;3.97;;;2.15;;
78228;SDS011;74448;49.082;9.152;2024-02-21T01:40:21;4.47;;;2.10;;
78228;SDS011;74448;49.082;9.152;2024-02-21T01:45:15;6.03;;;2.40;;
78228;SDS011;74448;49.082;9.152;2024-02-21T01:47:44;5.68;;;2.70;;
78228;SDS011;74448;49.082;9.152;2024-02-21T01:50:11;4.32;;;2.40;;
78228;SDS011;74448;49.082;9.152;2024-02-21T01:52:41;6.20;;;2.30;;
78228;SDS011;74448;49.082;9.152;2024-02-21T01:55:10;4.95;;;2.67;;
78228;SDS011;74448;49.082;9.152;2024-02-21T01:57:40;4.72;;;2.20;;
78228;SDS011;74448;49.082;9.152;2024-02-21T02:00:09;4.72;;;2.25;;
78228;SDS011;74448;49.082;9.152;2024-02-21T02:02:36;6.40;;;2.22;;
78228;SDS011;74448;49.082;9.152;2024-02-21T02:05:04;6.55;;;2.38;;
78228;SDS011;74448;49.082;9.152;2024-02-21T02:07:32;3.72;;;1.88;;
78228;SDS011;74448;49.082;9.152;2024-02-21T02:12:26;6.30;;;2.10;;
78228;SDS011;74448;49.082;9.152;2024-02-21T02:14:59;5.25;;;2.20;;
78228;SDS011;74448;49.082;9.152;2024-02-21T02:17:26;5.68;;;2.22;;
78228;SDS011;74448;49.082;9.152;2024-02-21T02:19:53;6.20;;;2.30;;
78228;SDS011;74448;49.082;9.152;2024-02-21T02:24:49;5.25;;;2.20;;
78228;SDS011;74448;49.082;9.152;2024-02-21T02:27:15;3.97;;;2.08;;
78228;SDS011;74448;49.082;9.152;2024-02-21T02:29:42;5.13;;;2.15;;
78228;SDS011;74448;49.082;9.152;2024-02-21T02:32:08;4.18;;;2.03;;
78228;SDS011;74448;49.082;9.152;2024-02-21T02:34:35;4.35;;;2.03;;
78228;SDS011;74448;49.082;9.152;2024-02-21T02:37:02;3.97;;;2.30;;
78228;SDS011;74448;49.082;9.152;2024-02-21T02:41:55;5.45;;;2.38;;
78228;SDS011;74448;49.082;9.152;2024-02-21T02:44:21;7.47;;;2.35;;
78228;SDS011;74448;49.082;9.152;2024-02-21T02:46:48;6.53;;;2.15;;
78228;SDS011;74448;49.082;9.152;2024-02-21T02:51:44;3.83;;;2.15;;
78228;SDS011;74448;49.082;9.152;2024-02-21T02:54:11;5.40;;;1.92;;
78228;SDS011;74448;49.082;9.152;2024-02-21T02:56:38;5.35;;;2.22;;
78228;SDS011;74448;49.082;9.152;2024-02-21T02:59:04;5.78;;;2.05;;
78228;SDS011;74448;49.082;9.152;2024-02-21T03:01:33;5.03;;;2.35;;
78228;SDS011;74448;49.082;9.152;2024-02-21T03:04:01;4.00;;;2.40;;
78228;SDS011;74448;49.082;9.152;2024-02-21T03:06:28;3.90;;;2.20;;
78228;SDS011;74448;49.082;9.152;2024-02-21T03:08:54;4.25;;;2.00;;
78228;SDS011;74448;49.082;9.152;2024-02-21T03:13:55;4.38;;;2.28;;
78228;SDS011;74448;49.082;9.152;2024-02-21T03:16:25;6.30;;;2.28;;
78228;SDS011;74448;49.082;9.152;2024-02-21T03:18:52;4.72;;;2.13;;
78228;SDS011;74448;49.082;9.152;2024-02-21T03:21:18;5.97;;;2.65;;
78228;SDS011;74448;49.082;9.152;2024-02-21T03:23:45;3.70;;;1.90;;
78228;SDS011;74448;49.082;9.152;2024-02-21T03:26:12;4.65;;;2.10;;
78228;SDS011;74448;49.082;9.152;2024-02-21T03:28:43;5.00;;;2.20;;
78228;SDS011;74448;49.082;9.152;2024-02-21T03:31:12;4.80;;;2.22;;
78228;SDS011;74448;49.082;9.152;2024-02-21T03:33:41;3.88;;;2.03;;
78228;SDS011;74448;49.082;9.152;2024-02-21T03:36:15;3.30;;;1.75;;
78228;SDS011;74448;49.082;9.152;2024-02-21T03:38:42;4.93;;;1.90;;
78228;SDS011;74448;49.082;9.152;2024-02-21T03:41:08;4.32;;;2.67;;
78228;SDS011;74448;49.082;9.152;2024-02-21T03:43:37;6.50;;;2.28;;
78228;SDS011;74448;49.082;9.152;2024-02-21T03:46:04;4.70;;;2.33;;
78228;SDS011;74448;49.082;9.152;2024-02-21T03:48:31;6.03;;;2.25;;
78228;SDS011;74448;49.082;9.152;2024-02-21T03:50:58;3.22;;;1.85;;
78228;SDS011;74448;49.082;9.152;2024-02-21T03:53:25;5.80;;;2.08;;
78228;SDS011;74448;49.082;9.152;2024-02-21T03:55:51;7.85;;;2.70;;
78228;SDS011;74448;49.082;9.152;2024-02-21T03:58:18;4.47;;;2.25;;
78228;SDS011;74448;49.082;9.152;2024-02-21T04:00:45;8.48;;;2.60;;
78228;SDS011;74448;49.082;9.152;2024-02-21T04:03:11;4.38;;;1.92;;
78228;SDS011;74448;49.082;9.152;2024-02-21T04:05:38;5.15;;;2.17;;
78228;SDS011;74448;49.082;9.152;2024-02-21T04:08:05;7.80;;;2.35;;
78228;SDS011;74448;49.082;9.152;2024-02-21T04:10:32;4.55;;;2.20;;
78228;SDS011;74448;49.082;9.152;2024-02-21T04:12:58;4.68;;;1.90;;
78228;SDS011;74448;49.082;9.152;2024-02-21T04:15:25;3.10;;;1.67;;
78228;SDS011;74448;49.082;9.152;2024-02-21T04:17:52;3.78;;;2.50;;
78228;SDS011;74448;49.082;9.152;2024-02-21T04:20:19;7.57;;;2.95;;
78228;SDS011;74448;49.082;9.152;2024-02-21T04:22:46;6.30;;;2.33;;
78228;SDS011;74448;49.082;9.152;2024-02-21T04:25:12;3.72;;;1.85;;
78228;SDS011;74448;49.082;9.152;2024-02-21T04:27:39;4.40;;;2.15;;
78228;SDS011;74448;49.082;9.152;2024-02-21T04:30:06;3.92;;;2.47;;
78228;SDS011;74448;49.082;9.152;2024-02-21T04:32:33;3.83;;;2.22;;
78228;SDS011;74448;49.082;9.152;2024-02-21T04:35:00;4.57;;;2.13;;
78228;SDS011;74448;49.082;9.152;2024-02-21T04:37:27;4.25;;;1.80;;
78228;SDS011;74448;49.082;9.152;2024-02-21T04:39:53;3.30;;;2.13;;
78228;SDS011;74448;49.082;9.152;2024-02-21T04:42:20;7.05;;;2.30;;
78228;SDS011;74448;49.082;9.152;2024-02-21T04:44:46;3.83;;;2.05;;
78228;SDS011;74448;49.082;9.152;2024-02-21T04:47:13;3.75;;;1.90;;
78228;SDS011;74448;49.082;9.152;2024-02-21T04:49:39;4.55;;;2.03;;
78228;SDS011;74448;49.082;9.152;2024-02-21T04:54:33;5.15;;;2.00;;
78228;SDS011;74448;49.082;9.152;2024-02-21T04:57:01;4.22;;;1.88;;
78228;SDS011;74448;49.082;9.152;2024-02-21T04:59:28;3.88;;;2.10;;
78228;SDS011;74448;49.082;9.152;2024-02-21T05:01:55;4.30;;;2.25;;
78228;SDS011;74448;49.082;9.152;2024-02-21T05:04:22;3.17;;;1.92;;
78228;SDS011;74448;49.082;9.152;2024-02-21T05:09:15;3.63;;;2.22;;
78228;SDS011;74448;49.082;9.152;2024-02-21T05:11:42;5.80;;;2.30;;
78228;SDS011;74448;49.082;9.152;2024-02-21T05:14:08;5.45;;;2.08;;
78228;SDS011;74448;49.082;9.152;2024-02-21T05:16:35;4.20;;;2.38;;
78228;SDS011;74448;49.082;9.152;2024-02-21T05:21:30;7.22;;;2.28;;
78228;SDS011;74448;49.082;9.152;2024-02-21T05:23:57;3.70;;;2.00;;
78228;SDS011;74448;49.082;9.152;2024-02-21T05:26:24;4.80;;;2.30;;
78228;SDS011;74448;49.082;9.152;2024-02-21T05:28:51;5.13;;;1.98;;
78228;SDS011;74448;49.082;9.152;2024-02-21T05:31:18;4.53;;;2.10;;
78228;SDS011;74448;49.082;9.152;2024-02-21T05:33:46;3.00;;;1.80;;
78228;SDS011;74448;49.082;9.152;2024-02-21T05:36:13;4.47;;;2.13;;
78228;SDS011;74448;49.082;9.152;2024-02-21T05:38:40;5.93;;;1.85;;
78228;SDS011;74448;49.082;9.152;2024-02-21T05:41:07;3.97;;;2.13;;
78228;SDS011;74448;49.082;9.152;2024-02-21T05:43:37;2.88;;;1.70;;
78228;SDS011;74448;49.082;9.152;2024-02-21T05:48:30;3.03;;;1.73;;
78228;SDS011;74448;49.082;9.152;2024-02-21T05:51:02;3.75;;;2.25;;
78228;SDS011;74448;49.082;9.152;2024-02-21T05:53:29;5.65;;;1.90;;
78228;SDS011;74448;49.082;9.152;2024-02-21T05:55:56;3.67;;;2.20;;
78228;SDS011;74448;49.082;9.152;2024-02-21T06:00:49;3.60;;;1.73;;
78228;SDS011;74448;49.082;9.152;2024-02-21T06:05:42;3.63;;;1.92;;
78228;SDS011;74448;49.082;9.152;2024-02-21T06:10:36;3.08;;;1.73;;
78228;SDS011;74448;49.082;9.152;2024-02-21T06:13:02;6.43;;;2.42;;
78228;SDS011;74448;49.082;9.152;2024-02-21T06:17:55;4.38;;;2.45;;
78228;SDS011;74448;49.082;9.152;2024-02-21T06:20:22;5.00;;;2.10;;
78228;SDS011;74448;49.082;9.152;2024-02-21T06:25:15;3.35;;;1.98;;
78228;SDS011;74448;49.082;9.152;2024-02-21T06:30:09;5.65;;;1.95;;
78228;SDS011;74448;49.082;9.152;2024-02-21T06:32:36;4.43;;;2.35;;
78228;SDS011;74448;49.082;9.152;2024-02-21T06:35:04;3.60;;;1.90;;
78228;SDS011;74448;49.082;9.152;2024-02-21T06:37:31;5.78;;;2.00;;
78228;SDS011;74448;49.082;9.152;2024-02-21T06:39:58;3.33;;;1.85;;
78228;SDS011;74448;49.082;9.152;2024-02-21T06:42:25;4.70;;;1.95;;
78228;SDS011;74448;49.082;9.152;2024-02-21T06:44:52;3.95;;;1.88;;
78228;SDS011;74448;49.082;9.152;2024-02-21T06:49:49;4.50;;;2.00;;
78228;SDS011;74448;49.082;9.152;2024-02-21T06:52:18;4.97;;;2.15;;
78228;SDS011;74448;49.082;9.152;2024-02-21T06:54:46;3.63;;;2.20;;
78228;SDS011;74448;49.082;9.152;2024-02-21T06:57:13;4.43;;;1.83;;
78228;SDS011;74448;49.082;9.152;2024-02-21T06:59:41;5.10;;;2.05;;
78228;SDS011;74448;49.082;9.152;2024-02-21T07:02:08;4.75;;;1.95;;
78228;SDS011;74448;49.082;9.152;2024-02-21T07:04:35;4.93;;;1.92;;
78228;SDS011;74448;49.082;9.152;2024-02-21T07:09:29;5.97;;;2.88;;
78228;SDS011;74448;49.082;9.152;2024-02-21T07:11:58;6.63;;;3.38;;
78228;SDS011;74448;49.082;9.152;2024-02-21T07:14:25;4.80;;;2.03;;
78228;SDS011;74448;49.082;9.152;2024-02-21T07:16:52;4.60;;;1.85;;
78228;SDS011;74448;49.082;9.152;2024-02-21T07:19:19;7.07;;;2.78;;
78228;SDS011;74448;49.082;9.152;2024-02-21T07:21:46;3.72;;;2.10;;
78228;SDS011;74448;49.082;9.152;2024-02-21T07:24:14;4.85;;;2.53;;
78228;SDS011;74448;49.082;9.152;2024-02-21T07:26:41;5.47;;;2.53;;
78228;SDS011;74448;49.082;9.152;2024-02-21T07:29:09;5.38;;;2.25;;
78228;SDS011;74448;49.082;9.152;2024-02-21T07:31:42;4.35;;;2.30;;
78228;SDS011;74448;49.082;9.152;2024-02-21T07:34:10;4.82;;;2.50;;
78228;SDS011;74448;49.082;9.152;2024-02-21T07:36:37;5.20;;;2.08;;
78228;SDS011;74448;49.082;9.152;2024-02-21T07:39:05;3.88;;;1.92;;
78228;SDS011;74448;49.082;9.152;2024-02-21T07:44:00;4.40;;;2.40;;
78228;SDS011;74448;49.082;9.152;2024-02-21T07:46:27;5.50;;;2.67;;
78228;SDS011;74448;49.082;9.152;2024-02-21T07:51:20;5.78;;;2.40;;
78228;SDS011;74448;49.082;9.152;2024-02-21T07:53:46;5.30;;;2.65;;
78228;SDS011;74448;49.082;9.152;2024-02-21T07:56:14;5.15;;;2.10;;
78228;SDS011;74448;49.082;9.152;2024-02-21T07:58:41;6.43;;;2.75;;
78228;SDS011;74448;49.082;9.152;2024-02-21T08:01:08;5.95;;;2.60;;
78228;SDS011;74448;49.082;9.152;2024-02-21T08:06:02;4.70;;;1.95;;
78228;SDS011;74448;49.082;9.152;2024-02-21T08:08:29;7.15;;;2.33;;
78228;SDS011;74448;49.082;9.152;2024-02-21T08:10:56;4.35;;;2.28;;
78228;SDS011;74448;49.082;9.152;2024-02-21T08:13:23;6.22;;;2.90;;
78228;SDS011;74448;49.082;9.152;2024-02-21T08:15:50;5.78;;;2.72;;
78228;SDS011;74448;49.082;9.152;2024-02-21T08:18:16;6.00;;;2.22;;
78228;SDS011;74448;49.082;9.152;2024-02-21T08:23:09;4.50;;;2.45;;
78228;SDS011;74448;49.082;9.152;2024-02-21T08:28:03;4.40;;;2.42;;
78228;SDS011;74448;49.082;9.152;2024-02-21T08:30:32;7.03;;;2.50;;
78228;SDS011;74448;49.082;9.152;2024-02-21T08:32:58;3.20;;;1.92;;
78228;SDS011;74448;49.082;9.152;2024-02-21T08:35:25;4.57;;;2.05;;
78228;SDS011;74448;49.082;9.152;2024-02-21T08:37:52;8.27;;;2.70;;
78228;SDS011;74448;49.082;9.152;2024-02-21T08:40:19;3.97;;;2.40;;
78228;SDS011;74448;49.082;9.152;2024-02-21T08:42:48;4.10;;;2.13;;
78228;SDS011;74448;49.082;9.152;2024-02-21T08:45:16;5.38;;;2.20;;
78228;SDS011;74448;49.082;9.152;2024-02-21T08:50:09;5.05;;;2.72;;
78228;SDS011;74448;49.082;9.152;2024-02-21T08:52:52;4.97;;;2.25;;
78228;SDS011;74448;49.082;9.152;2024-02-21T08:55:19;4.07;;;2.22;;
78228;SDS011;74448;49.082;9.152;2024-02-21T08:57:46;5.13;;;2.42;;
78228;SDS011;74448;49.082;9.152;2024-02-21T09:00:13;4.65;;;2.50;;
78228;SDS011;74448;49.082;9.152;2024-02-21T09:02:40;6.43;;;2.67;;
78228;SDS011;74448;49.082;9.152;2024-02-21T09:05:09;4.03;;;2.55;;
78228;SDS011;74448;49.082;9.152;2024-02-21T09:07:36;4.28;;;2.30;;
78228;SDS011;74448;49.082;9.152;2024-02-21T09:10:03;5.03;;;2.33;;
78228;SDS011;74448;49.082;9.152;2024-02-21T09:12:30;3.33;;;2.00;;
78228;SDS011;74448;49.082;9.152;2024-02-21T09:14:57;3.15;;;2.10;;
78228;SDS011;74448;49.082;9.152;2024-02-21T09:17:23;4.30;;;1.83;;
78228;SDS011;74448;49.082;9.152;2024-02-21T09:19:51;5.88;;;2.25;;
78228;SDS011;74448;49.082;9.152;2024-02-21T09:22:18;3.80;;;2.13;;
78228;SDS011;74448;49.082;9.152;2024-02-21T09:24:45;7.00;;;2.47;;
78228;SDS011;74448;49.082;9.152;2024-02-21T09:27:12;7.95;;;2.22;;
78228;SDS011;74448;49.082;9.152;2024-02-21T09:29:38;5.20;;;2.58;;
78228;SDS011;74448;49.082;9.152;2024-02-21T09:32:06;5.10;;;2.15;;
78228;SDS011;74448;49.082;9.152;2024-02-21T09:34:33;5.32;;;2.45;;
78228;SDS011;74448;49.082;9.152;2024-02-21T09:37:00;3.85;;;1.73;;
78228;SDS011;74448;49.082;9.152;2024-02-21T09:39:26;5.38;;;2.05;;
78228;SDS011;74448;49.082;9.152;2024-02-21T09:41:53;4.40;;;2.28;;
78228;SDS011;74448;49.082;9.152;2024-02-21T09:44:26;3.42;;;1.88;;
78228;SDS011;74448;49.082;9.152;2024-02-21T09:47:04;3.85;;;2.05;;
78228;SDS011;74448;49.082;9.152;2024-02-21T09:49:36;5.50;;;2.35;;
78228;SDS011;74448;49.082;9.152;2024-02-21T09:52:05;4.70;;;2.33;;
78228;SDS011;74448;49.082;9.152;2024-02-21T09:54:33;4.80;;;2.30;;
78228;SDS011;74448;49.082;9.152;2024-02-21T09:57:01;5.03;;;2.20;;
78228;SDS011;74448;49.082;9.152;2024-02-21T09:59:30;4.07;;;2.30;;
78228;SDS011;74448;49.082;9.152;2024-02-21T10:01:58;4.70;;;2.05;;
78228;SDS011;74448;49.082;9.152;2024-02-21T10:04:28;4.00;;;2.40;;
78228;SDS011;74448;49.082;9.152;2024-02-21T10:06:56;3.42;;;1.83;;
78228;SDS011;74448;49.082;9.152;2024-02-21T10:09:26;5.38;;;2.00;;
78228;SDS011;74448;49.082;9.152;2024-02-21T10:11:55;4.78;;;2.70;;
78228;SDS011;74448;49.082;9.152;2024-02-21T10:14:22;3.78;;;1.83;;
78228;SDS011;74448;49.082;9.152;2024-02-21T10:16:57;3.15;;;1.58;;
78228;SDS011;74448;49.082;9.152;2024-02-21T10:19:25;5.90;;;2.25;;
78228;SDS011;74448;49.082;9.152;2024-02-21T10:24:30;3.97;;;1.80;;
78228;SDS011;74448;49.082;9.152;2024-02-21T10:27:02;5.28;;;2.05;;
78228;SDS011;74448;49.082;9.152;2024-02-21T10:29:30;5.30;;;2.42;;
78228;SDS011;74448;49.082;9.152;2024-02-21T10:32:04;6.22;;;2.75;;
78228;SDS011;74448;49.082;9.152;2024-02-21T10:34:31;4.75;;;1.55;;
78228;SDS011;74448;49.082;9.152;2024-02-21T10:39:32;5.25;;;1.77;;
78228;SDS011;74448;49.082;9.152;2024-02-21T10:42:00;4.22;;;2.00;;
78228;SDS011;74448;49.082;9.152;2024-02-21T10:44:31;4.43;;;1.65;;
78228;SDS011;74448;49.082;9.152;2024-02-21T10:46:59;3.17;;;1.80;;
78228;SDS011;74448;49.082;9.152;2024-02-21T10:49:30;4.45;;;2.10;;
78228;SDS011;74448;49.082;9.152;2024-02-21T10:54:50;4.65;;;2.00;;
78228;SDS011;74448;49.082;9.152;2024-02-21T10:57:23;4.05;;;2.13;;
78228;SDS011;74448;49.082;9.152;2024-02-21T10:59:51;5.47;;;2.63;;
78228;SDS011;74448;49.082;9.152;2024-02-21T11:02:19;3.45;;;1.70;;
78228;SDS011;74448;49.082;9.152;2024-02-21T11:04:47;3.65;;;1.80;;
78228;SDS011;74448;49.082;9.152;2024-02-21T11:07:15;4.05;;;1.75;;
78228;SDS011;74448;49.082;9.152;2024-02-21T11:09:50;5.28;;;1.73;;
78228;SDS011;74448;49.082;9.152;2024-02-21T11:12:22;3.50;;;1.63;;
78228;SDS011;74448;49.082;9.152;2024-02-21T11:14:50;2.90;;;1.50;;
78228;SDS011;74448;49.082;9.152;2024-02-21T11:17:17;4.78;;;2.00;;
78228;SDS011;74448;49.082;9.152;2024-02-21T11:19:53;3.35;;;1.40;;
78228;SDS011;74448;49.082;9.152;2024-02-21T11:24:55;3.78;;;2.05;;
78228;SDS011;74448;49.082;9.152;2024-02-21T11:27:33;6.30;;;2.40;;
78228;SDS011;74448;49.082;9.152;2024-02-21T11:32:30;5.22;;;2.85;;
78228;SDS011;74448;49.082;9.152;2024-02-21T11:34:58;2.90;;;1.88;;
78228;SDS011;74448;49.082;9.152;2024-02-21T11:37:32;4.22;;;1.90;;
78228;SDS011;74448;49.082;9.152;2024-02-21T11:40:00;4.10;;;1.85;;
78228;SDS011;74448;49.082;9.152;2024-02-21T11:42:29;4.57;;;1.92;;
78228;SDS011;74448;49.082;9.152;2024-02-21T11:44:57;4.78;;;1.83;;
78228;SDS011;74448;49.082;9.152;2024-02-21T11:49:50;3.55;;;1.90;;
78228;SDS011;74448;49.082;9.152;2024-02-21T11:52:24;4.55;;;1.83;;
78228;SDS011;74448;49.082;9.152;2024-02-21T11:54:53;2.75;;;1.65;;
78228;SDS011;74448;49.082;9.152;2024-02-21T11:57:21;6.90;;;2.00;;
78228;SDS011;74448;49.082;9.152;2024-02-21T11:59:47;2.63;;;1.95;;
78228;SDS011;74448;49.082;9.152;2024-02-21T12:02:16;3.38;;;1.80;;
78228;SDS011;74448;49.082;9.152;2024-02-21T12:04:44;3.75;;;1.90;;
78228;SDS011;74448;49.082;9.152;2024-02-21T12:07:11;4.05;;;1.75;;
78228;SDS011;74448;49.082;9.152;2024-02-21T12:12:07;5.28;;;1.73;;
78228;SDS011;74448;49.082;9.152;2024-02-21T12:17:01;3.05;;;1.58;;
78228;SDS011;74448;49.082;9.152;2024-02-21T12:19:32;5.32;;;2.33;;
78228;SDS011;74448;49.082;9.152;2024-02-21T12:22:00;3.47;;;1.70;;
78228;SDS011;74448;49.082;9.152;2024-02-21T12:24:27;4.22;;;1.90;;
78228;SDS011;74448;49.082;9.152;2024-02-21T12:26:55;3.80;;;1.63;;
78228;SDS011;74448;49.082;9.152;2024-02-21T12:29:23;4.00;;;2.03;;
78228;SDS011;74448;49.082;9.152;2024-02-21T12:31:53;3.17;;;1.77;;
78228;SDS011;74448;49.082;9.152;2024-02-21T12:34:21;4.00;;;2.10;;
78228;SDS011;74448;49.082;9.152;2024-02-21T12:37:04;4.55;;;1.70;;
78228;SDS011;74448;49.082;9.152;2024-02-21T12:39:30;4.43;;;1.80;;
78228;SDS011;74448;49.082;9.152;2024-02-21T12:41:58;4.53;;;1.88;;
78228;SDS011;74448;49.082;9.152;2024-02-21T12:44:25;3.08;;;1.90;;
78228;SDS011;74448;49.082;9.152;2024-02-21T12:46:52;3.38;;;1.83;;
78228;SDS011;74448;49.082;9.152;2024-02-21T12:49:21;2.25;;;1.48;;
78228;SDS011;74448;49.082;9.152;2024-02-21T12:51:48;3.30;;;1.98;;
78228;SDS011;74448;49.082;9.152;2024-02-21T12:54:15;3.95;;;1.75;;
78228;SDS011;74448;49.082;9.152;2024-02-21T12:56:42;4.18;;;1.80;;
78228;SDS011;74448;49.082;9.152;2024-02-21T12:59:08;3.53;;;1.90;;
78228;SDS011;74448;49.082;9.152;2024-02-21T13:01:36;4.13;;;1.88;;
78228;SDS011;74448;49.082;9.152;2024-02-21T13:04:04;2.97;;;1.75;;
78228;SDS011;74448;49.082;9.152;2024-02-21T13:06:31;3.75;;;2.08;;
78228;SDS011;74448;49.082;9.152;2024-02-21T13:08:58;4.05;;;1.60;;
78228;SDS011;74448;49.082;9.152;2024-02-21T13:11:25;4.57;;;1.85;;
78228;SDS011;74448;49.082;9.152;2024-02-21T13:13:54;4.80;;;1.80;;
78228;SDS011;74448;49.082;9.152;2024-02-21T13:16:21;2.85;;;1.77;;
78228;SDS011;74448;49.082;9.152;2024-02-21T13:18:48;4.10;;;1.63;;
78228;SDS011;74448;49.082;9.152;2024-02-21T13:21:15;4.82;;;2.33;;
78228;SDS011;74448;49.082;9.152;2024-02-21T13:23:42;3.47;;;1.83;;
78228;SDS011;74448;49.082;9.152;2024-02-21T13:26:10;2.83;;;1.60;;
78228;SDS011;74448;49.082;9.152;2024-02-21T13:28:38;4.85;;;1.70;;
78228;SDS011;74448;49.082;9.152;2024-02-21T13:33:32;16.42;;;14.70;;
78228;SDS011;74448;49.082;9.152;2024-02-21T13:35:58;20.35;;;9.98;;
78228;SDS011;74448;49.082;9.152;2024-02-21T13:40:53;30.40;;;8.65;;
78228;SDS011;74448;49.082;9.152;2024-02-21T13:43:20;13.90;;;10.00;;
78228;SDS011;74448;49.082;9.152;2024-02-21T13:45:57;18.88;;;7.90;;
78228;SDS011;74448;49.082;9.152;2024-02-21T13:48:31;11.35;;;7.93;;
78228;SDS011;74448;49.082;9.152;2024-02-21T13:50:59;21.42;;;8.73;;
78228;SDS011;74448;49.082;9.152;2024-02-21T13:53:28;21.67;;;9.32;;
78228;SDS011;74448;49.082;9.152;2024-02-21T13:55:55;17.13;;;7.82;;
78228;SDS011;74448;49.082;9.152;2024-02-21T14:00:48;14.73;;;8.15;;
78228;SDS011;74448;49.082;9.152;2024-02-21T14:05:42;14.95;;;7.65;;
78228;SDS011;74448;49.082;9.152;2024-02-21T14:08:09;23.60;;;8.35;;
78228;SDS011;74448;49.082;9.152;2024-02-21T14:10:35;16.00;;;8.35;;
78228;SDS011;74448;49.082;9.152;2024-02-21T14:13:03;15.10;;;7.18;;
78228;SDS011;74448;49.082;9.152;2024-02-21T14:15:30;15.15;;;7.82;;
78228;SDS011;74448;49.082;9.152;2024-02-21T14:17:57;12.23;;;7.85;;
78228;SDS011;74448;49.082;9.152;2024-02-21T14:22:50;80.68;;;31.88;;
78228;SDS011;74448;49.082;9.152;2024-02-21T14:27:43;96.47;;;38.00;;
78228;SDS011;74448;49.082;9.152;2024-02-21T14:30:10;77.60;;;35.58;;
78228;SDS011;74448;49.082;9.152;2024-02-21T14:32:37;66.93;;;33.75;;
78228;SDS011;74448;49.082;9.152;2024-02-21T14:35:04;69.35;;;34.05;;
78228;SDS011;74448;49.082;9.152;2024-02-21T14:37:32;72.97;;;33.58;;
78228;SDS011;74448;49.082;9.152;2024-02-21T14:39:59;66.97;;;32.25;;
78228;SDS011;74448;49.082;9.152;2024-02-21T14:42:27;67.53;;;31.98;;
78228;SDS011;74448;49.082;9.152;2024-02-21T14:47:20;64.45;;;28.83;;
78228;SDS011;74448;49.082;9.152;2024-02-21T14:49:47;69.38;;;28.95;;
78228;SDS011;74448;49.082;9.152;2024-02-21T14:54:40;64.82;;;25.92;;
78228;SDS011;74448;49.082;9.152;2024-02-21T14:57:10;53.95;;;25.40;;
78228;SDS011;74448;49.082;9.152;2024-02-21T14:59:38;47.30;;;23.33;;
78228;SDS011;74448;49.082;9.152;2024-02-21T15:02:07;61.60;;;25.17;;
78228;SDS011;74448;49.082;9.152;2024-02-21T15:04:35;64.45;;;24.73;;
78228;SDS011;74448;49.082;9.152;2024-02-21T15:07:01;83.50;;;26.02;;
78228;SDS011;74448;49.082;9.152;2024-02-21T15:09:28;75.30;;;26.40;;
78228;SDS011;74448;49.082;9.152;2024-02-21T15:11:55;99.82;;;25.38;;
78228;SDS011;74448;49.082;9.152;2024-02-21T15:16:51;83.57;;;22.77;;
78228;SDS011;74448;49.082;9.152;2024-02-21T15:21:44;75.30;;;24.42;;
78228;SDS011;74448;49.082;9.152;2024-02-21T15:24:11;82.90;;;24.33;;
78228;SDS011;74448;49.082;9.152;2024-02-21T15:29:04;59.33;;;21.02;;
78228;SDS011;74448;49.082;9.152;2024-02-21T15:31:31;74.95;;;24.02;;
78228;SDS011;74448;49.082;9.152;2024-02-21T15:36:25;54.22;;;20.83;;
78228;SDS011;74448;49.082;9.152;2024-02-21T15:38:52;62.17;;;20.75;;
78228;SDS011;74448;49.082;9.152;2024-02-21T15:41:18;66.55;;;21.13;;
78228;SDS011;74448;49.082;9.152;2024-02-21T15:43:47;52.20;;;19.55;;
78228;SDS011;74448;49.082;9.152;2024-02-21T15:48:41;63.55;;;21.13;;
78228;SDS011;74448;49.082;9.152;2024-02-21T15:51:08;52.22;;;20.85;;
78228;SDS011;74448;49.082;9.152;2024-02-21T15:53:34;51.85;;;20.05;;
78228;SDS011;74448;49.082;9.152;2024-02-21T15:56:02;51.10;;;21.77;;
78228;SDS011;74448;49.082;9.152;2024-02-21T15:58:29;62.08;;;21.63;;
78228;SDS011;74448;49.082;9.152;2024-02-21T16:00:57;55.33;;;21.25;;
78228;SDS011;74448;49.082;9.152;2024-02-21T16:03:25;48.78;;;20.23;;
78228;SDS011;74448;49.082;9.152;2024-02-21T16:08:18;55.67;;;22.45;;
78228;SDS011;74448;49.082;9.152;2024-02-21T16:13:12;63.60;;;22.40;;
78228;SDS011;74448;49.082;9.152;2024-02-21T16:15:38;47.28;;;20.33;;
78228;SDS011;74448;49.082;9.152;2024-02-21T16:18:05;38.75;;;19.67;;
78228;SDS011;74448;49.082;9.152;2024-02-21T16:20:33;48.10;;;18.45;;
78228;SDS011;74448;49.082;9.152;2024-02-21T16:23:00;50.53;;;19.98;;
78228;SDS011;74448;49.082;9.152;2024-02-21T16:25:29;42.63;;;19.30;;
78228;SDS011;74448;49.082;9.152;2024-02-21T16:27:57;47.08;;;20.02;;
78228;SDS011;74448;49.082;9.152;2024-02-21T16:30:24;38.25;;;18.90;;
78228;SDS011;74448;49.082;9.152;2024-02-21T16:32:50;39.25;;;20.92;;
78228;SDS011;74448;49.082;9.152;2024-02-21T16:35:18;47.63;;;19.48;;
78228;SDS011;74448;49.082;9.152;2024-02-21T16:37:46;61.33;;;21.40;;
78228;SDS011;74448;49.082;9.152;2024-02-21T16:40:13;54.47;;;20.20;;
78228;SDS011;74448;49.082;9.152;2024-02-21T16:42:40;37.72;;;16.75;;
78228;SDS011;74448;49.082;9.152;2024-02-21T16:47:34;44.67;;;18.13;;
78228;SDS011;74448;49.082;9.152;2024-02-21T16:50:02;44.70;;;18.55;;
78228;SDS011;74448;49.082;9.152;2024-02-21T16:52:29;40.55;;;17.45;;
78228;SDS011;74448;49.082;9.152;2024-02-21T16:54:57;50.55;;;19.08;;
78228;SDS011;74448;49.082;9.152;2024-02-21T16:57:24;47.70;;;19.00;;
78228;SDS011;74448;49.082;9.152;2024-02-21T17:02:17;40.65;;;17.40;;
78228;SDS011;74448;49.082;9.152;2024-02-21T17:04:44;46.88;;;18.00;;